sensor_id;sensor_type;location;lat;lon;timestamp;P1;durP1;ratioP1;P2;durP2;ratioP2
61685;SDS011;47592;45.904;8.978;2023-06-26T00:01:18;7.35;;;2.75;;
61685;SDS011;47592;45.904;8.978;2023-06-26T00:03:47;5.57;;;2.63;;
61685;SDS011;47592;45.904;8.978;2023-06-26T00:06:12;5.75;;;2.85;;
61685;SDS011;47592;45.904;8.978;2023-06-26T00:08:40;5.10;;;2.53;;
61685;SDS011;47592;45.904;8.978;2023-06-26T00:11:05;5.68;;;2.90;;
61685;SDS011;47592;45.904;8.978;2023-06-26T00:13:30;4.97;;;2.70;;
61685;SDS011;47592;45.904;8.978;2023-06-26T00:15:55;5.40;;;2.97;;
61685;SDS011;47592;45.904;8.978;2023-06-26T00:18:30;5.45;;;2.72;;
61685;SDS011;47592;45.904;8.978;2023-06-26T00:20:55;7.37;;;2.70;;
61685;SDS011;47592;45.904;8.978;2023-06-26T00:23:20;5.00;;;2.60;;
61685;SDS011;47592;45.904;8.978;2023-06-26T00:25:48;7.88;;;3.05;;
61685;SDS011;47592;45.904;8.978;2023-06-26T00:28:16;5.23;;;2.47;;
61685;SDS011;47592;45.904;8.978;2023-06-26T00:30:44;4.90;;;2.78;;
61685;SDS011;47592;45.904;8.978;2023-06-26T00:33:09;5.27;;;2.90;;
61685;SDS011;47592;45.904;8.978;2023-06-26T00:35:34;4.90;;;2.47;;
61685;SDS011;47592;45.904;8.978;2023-06-26T00:38:00;4.80;;;2.67;;
61685;SDS011;47592;45.904;8.978;2023-06-26T00:40:25;6.35;;;3.20;;
61685;SDS011;47592;45.904;8.978;2023-06-26T00:42:51;6.93;;;2.78;;
61685;SDS011;47592;45.904;8.978;2023-06-26T00:45:19;5.87;;;3.07;;
61685;SDS011;47592;45.904;8.978;2023-06-26T00:47:46;4.80;;;2.67;;
61685;SDS011;47592;45.904;8.978;2023-06-26T00:50:12;5.50;;;2.70;;
61685;SDS011;47592;45.904;8.978;2023-06-26T00:52:40;5.63;;;3.00;;
61685;SDS011;47592;45.904;8.978;2023-06-26T00:55:06;6.07;;;2.87;;
61685;SDS011;47592;45.904;8.978;2023-06-26T00:57:32;5.82;;;2.35;;
61685;SDS011;47592;45.904;8.978;2023-06-26T01:00:01;5.90;;;2.90;;
61685;SDS011;47592;45.904;8.978;2023-06-26T01:02:29;5.55;;;2.80;;
61685;SDS011;47592;45.904;8.978;2023-06-26T01:04:58;5.25;;;2.78;;
61685;SDS011;47592;45.904;8.978;2023-06-26T01:07:24;6.13;;;3.20;;
61685;SDS011;47592;45.904;8.978;2023-06-26T01:09:49;4.97;;;2.65;;
61685;SDS011;47592;45.904;8.978;2023-06-26T01:12:17;4.95;;;2.85;;
61685;SDS011;47592;45.904;8.978;2023-06-26T01:14:42;6.33;;;3.10;;
61685;SDS011;47592;45.904;8.978;2023-06-26T01:17:07;5.57;;;2.80;;
61685;SDS011;47592;45.904;8.978;2023-06-26T01:19:33;5.95;;;2.90;;
61685;SDS011;47592;45.904;8.978;2023-06-26T01:24:41;4.97;;;2.65;;
61685;SDS011;47592;45.904;8.978;2023-06-26T01:27:08;6.77;;;2.80;;
61685;SDS011;47592;45.904;8.978;2023-06-26T01:29:34;5.82;;;2.58;;
61685;SDS011;47592;45.904;8.978;2023-06-26T01:32:00;5.38;;;2.80;;
61685;SDS011;47592;45.904;8.978;2023-06-26T01:34:25;5.75;;;2.60;;
61685;SDS011;47592;45.904;8.978;2023-06-26T01:36:53;6.53;;;2.90;;
61685;SDS011;47592;45.904;8.978;2023-06-26T01:39:19;5.60;;;3.08;;
61685;SDS011;47592;45.904;8.978;2023-06-26T01:41:46;5.32;;;2.75;;
61685;SDS011;47592;45.904;8.978;2023-06-26T01:44:26;8.82;;;3.30;;
61685;SDS011;47592;45.904;8.978;2023-06-26T01:49:25;5.03;;;3.00;;
61685;SDS011;47592;45.904;8.978;2023-06-26T01:54:42;5.40;;;2.50;;
61685;SDS011;47592;45.904;8.978;2023-06-26T01:57:11;6.32;;;3.00;;
61685;SDS011;47592;45.904;8.978;2023-06-26T01:59:37;8.30;;;2.72;;
61685;SDS011;47592;45.904;8.978;2023-06-26T02:02:06;6.40;;;3.00;;
61685;SDS011;47592;45.904;8.978;2023-06-26T02:04:32;5.70;;;2.83;;
61685;SDS011;47592;45.904;8.978;2023-06-26T02:06:57;5.23;;;2.80;;
61685;SDS011;47592;45.904;8.978;2023-06-26T02:09:22;5.33;;;2.70;;
61685;SDS011;47592;45.904;8.978;2023-06-26T02:11:47;6.17;;;3.00;;
61685;SDS011;47592;45.904;8.978;2023-06-26T02:14:15;6.75;;;2.90;;
61685;SDS011;47592;45.904;8.978;2023-06-26T02:16:40;5.80;;;3.00;;
61685;SDS011;47592;45.904;8.978;2023-06-26T02:19:05;6.68;;;3.05;;
61685;SDS011;47592;45.904;8.978;2023-06-26T02:21:30;6.20;;;2.93;;
61685;SDS011;47592;45.904;8.978;2023-06-26T02:23:58;5.40;;;3.15;;
61685;SDS011;47592;45.904;8.978;2023-06-26T02:26:23;5.07;;;2.63;;
61685;SDS011;47592;45.904;8.978;2023-06-26T02:28:49;5.90;;;3.05;;
61685;SDS011;47592;45.904;8.978;2023-06-26T02:31:17;5.85;;;2.70;;
61685;SDS011;47592;45.904;8.978;2023-06-26T02:33:43;5.35;;;3.00;;
61685;SDS011;47592;45.904;8.978;2023-06-26T02:36:10;5.75;;;2.75;;
61685;SDS011;47592;45.904;8.978;2023-06-26T02:38:35;5.37;;;2.77;;
61685;SDS011;47592;45.904;8.978;2023-06-26T02:41:01;5.38;;;2.95;;
61685;SDS011;47592;45.904;8.978;2023-06-26T02:43:26;5.47;;;2.72;;
61685;SDS011;47592;45.904;8.978;2023-06-26T02:45:51;5.00;;;2.70;;
61685;SDS011;47592;45.904;8.978;2023-06-26T02:48:17;5.33;;;2.80;;
61685;SDS011;47592;45.904;8.978;2023-06-26T02:50:42;5.17;;;2.67;;
61685;SDS011;47592;45.904;8.978;2023-06-26T02:53:10;5.73;;;2.77;;
61685;SDS011;47592;45.904;8.978;2023-06-26T02:55:36;8.20;;;3.03;;
61685;SDS011;47592;45.904;8.978;2023-06-26T02:58:01;6.17;;;3.00;;
61685;SDS011;47592;45.904;8.978;2023-06-26T03:00:31;5.65;;;2.88;;
61685;SDS011;47592;45.904;8.978;2023-06-26T03:02:56;5.40;;;3.00;;
61685;SDS011;47592;45.904;8.978;2023-06-26T03:05:22;5.30;;;2.63;;
61685;SDS011;47592;45.904;8.978;2023-06-26T03:07:51;5.70;;;3.17;;
61685;SDS011;47592;45.904;8.978;2023-06-26T03:10:16;5.53;;;2.92;;
61685;SDS011;47592;45.904;8.978;2023-06-26T03:12:41;5.67;;;3.20;;
61685;SDS011;47592;45.904;8.978;2023-06-26T03:15:08;6.00;;;3.10;;
61685;SDS011;47592;45.904;8.978;2023-06-26T03:17:33;5.22;;;3.22;;
61685;SDS011;47592;45.904;8.978;2023-06-26T03:19:59;5.78;;;3.05;;
61685;SDS011;47592;45.904;8.978;2023-06-26T03:22:26;6.13;;;3.10;;
61685;SDS011;47592;45.904;8.978;2023-06-26T03:24:54;6.15;;;3.47;;
61685;SDS011;47592;45.904;8.978;2023-06-26T03:27:20;7.78;;;3.25;;
61685;SDS011;47592;45.904;8.978;2023-06-26T03:29:46;6.25;;;3.30;;
61685;SDS011;47592;45.904;8.978;2023-06-26T03:32:11;5.75;;;3.05;;
61685;SDS011;47592;45.904;8.978;2023-06-26T03:34:39;5.97;;;3.13;;
61685;SDS011;47592;45.904;8.978;2023-06-26T03:37:04;5.23;;;3.10;;
61685;SDS011;47592;45.904;8.978;2023-06-26T03:39:29;7.32;;;3.30;;
61685;SDS011;47592;45.904;8.978;2023-06-26T03:41:57;5.23;;;3.03;;
61685;SDS011;47592;45.904;8.978;2023-06-26T03:44:26;5.60;;;2.97;;
61685;SDS011;47592;45.904;8.978;2023-06-26T03:46:53;5.57;;;3.28;;
61685;SDS011;47592;45.904;8.978;2023-06-26T03:49:19;6.28;;;3.40;;
61685;SDS011;47592;45.904;8.978;2023-06-26T03:51:44;5.57;;;3.03;;
61685;SDS011;47592;45.904;8.978;2023-06-26T03:54:10;6.18;;;3.03;;
61685;SDS011;47592;45.904;8.978;2023-06-26T03:56:40;6.03;;;3.38;;
61685;SDS011;47592;45.904;8.978;2023-06-26T03:59:05;6.18;;;3.38;;
61685;SDS011;47592;45.904;8.978;2023-06-26T04:01:30;5.40;;;3.10;;
61685;SDS011;47592;45.904;8.978;2023-06-26T04:03:56;5.77;;;3.23;;
61685;SDS011;47592;45.904;8.978;2023-06-26T04:06:21;5.30;;;3.03;;
61685;SDS011;47592;45.904;8.978;2023-06-26T04:08:48;6.23;;;3.20;;
61685;SDS011;47592;45.904;8.978;2023-06-26T04:11:16;7.57;;;3.35;;
61685;SDS011;47592;45.904;8.978;2023-06-26T04:13:44;6.05;;;3.50;;
61685;SDS011;47592;45.904;8.978;2023-06-26T04:16:11;5.50;;;3.13;;
61685;SDS011;47592;45.904;8.978;2023-06-26T04:18:36;5.78;;;2.85;;
61685;SDS011;47592;45.904;8.978;2023-06-26T04:21:09;5.22;;;3.05;;
61685;SDS011;47592;45.904;8.978;2023-06-26T04:23:36;5.72;;;3.15;;
61685;SDS011;47592;45.904;8.978;2023-06-26T04:26:01;5.85;;;3.22;;
61685;SDS011;47592;45.904;8.978;2023-06-26T04:28:29;6.20;;;3.50;;
61685;SDS011;47592;45.904;8.978;2023-06-26T04:30:55;7.05;;;3.00;;
61685;SDS011;47592;45.904;8.978;2023-06-26T04:33:20;5.38;;;3.38;;
61685;SDS011;47592;45.904;8.978;2023-06-26T04:35:45;5.28;;;3.00;;
61685;SDS011;47592;45.904;8.978;2023-06-26T04:38:14;6.88;;;3.40;;
61685;SDS011;47592;45.904;8.978;2023-06-26T04:40:41;5.85;;;3.38;;
61685;SDS011;47592;45.904;8.978;2023-06-26T04:43:07;5.50;;;3.05;;
61685;SDS011;47592;45.904;8.978;2023-06-26T04:45:32;5.70;;;3.20;;
61685;SDS011;47592;45.904;8.978;2023-06-26T04:47:57;6.37;;;3.17;;
61685;SDS011;47592;45.904;8.978;2023-06-26T04:50:22;6.38;;;3.25;;
61685;SDS011;47592;45.904;8.978;2023-06-26T04:52:48;5.75;;;3.20;;
61685;SDS011;47592;45.904;8.978;2023-06-26T04:55:13;7.47;;;3.07;;
61685;SDS011;47592;45.904;8.978;2023-06-26T04:57:41;5.60;;;2.90;;
61685;SDS011;47592;45.904;8.978;2023-06-26T05:00:06;6.87;;;3.53;;
61685;SDS011;47592;45.904;8.978;2023-06-26T05:02:36;5.90;;;3.13;;
61685;SDS011;47592;45.904;8.978;2023-06-26T05:05:01;7.30;;;3.30;;
61685;SDS011;47592;45.904;8.978;2023-06-26T05:07:26;7.23;;;3.23;;
61685;SDS011;47592;45.904;8.978;2023-06-26T05:09:52;6.63;;;3.27;;
61685;SDS011;47592;45.904;8.978;2023-06-26T05:12:19;5.93;;;3.40;;
61685;SDS011;47592;45.904;8.978;2023-06-26T05:14:44;5.15;;;3.22;;
61685;SDS011;47592;45.904;8.978;2023-06-26T05:17:11;6.80;;;3.28;;
61685;SDS011;47592;45.904;8.978;2023-06-26T05:19:36;5.43;;;3.10;;
61685;SDS011;47592;45.904;8.978;2023-06-26T05:22:02;7.30;;;3.10;;
61685;SDS011;47592;45.904;8.978;2023-06-26T05:24:34;6.38;;;3.30;;
61685;SDS011;47592;45.904;8.978;2023-06-26T05:27:00;6.57;;;3.60;;
61685;SDS011;47592;45.904;8.978;2023-06-26T05:29:25;5.95;;;3.17;;
61685;SDS011;47592;45.904;8.978;2023-06-26T05:31:51;6.40;;;3.55;;
61685;SDS011;47592;45.904;8.978;2023-06-26T05:34:16;6.90;;;3.03;;
61685;SDS011;47592;45.904;8.978;2023-06-26T05:36:42;6.10;;;3.70;;
61685;SDS011;47592;45.904;8.978;2023-06-26T05:39:10;6.70;;;3.03;;
61685;SDS011;47592;45.904;8.978;2023-06-26T05:41:35;6.00;;;3.35;;
61685;SDS011;47592;45.904;8.978;2023-06-26T05:44:00;6.22;;;3.45;;
61685;SDS011;47592;45.904;8.978;2023-06-26T05:46:26;6.90;;;3.63;;
61685;SDS011;47592;45.904;8.978;2023-06-26T05:48:53;6.75;;;3.30;;
61685;SDS011;47592;45.904;8.978;2023-06-26T05:51:21;5.05;;;2.75;;
61685;SDS011;47592;45.904;8.978;2023-06-26T05:53:47;5.10;;;3.22;;
61685;SDS011;47592;45.904;8.978;2023-06-26T05:56:12;5.80;;;3.35;;
61685;SDS011;47592;45.904;8.978;2023-06-26T05:58:37;5.97;;;3.45;;
61685;SDS011;47592;45.904;8.978;2023-06-26T06:01:03;5.47;;;3.10;;
61685;SDS011;47592;45.904;8.978;2023-06-26T06:03:28;6.70;;;3.23;;
61685;SDS011;47592;45.904;8.978;2023-06-26T06:05:53;5.70;;;3.20;;
61685;SDS011;47592;45.904;8.978;2023-06-26T06:08:19;6.22;;;3.30;;
61685;SDS011;47592;45.904;8.978;2023-06-26T06:10:44;5.70;;;3.50;;
61685;SDS011;47592;45.904;8.978;2023-06-26T06:13:09;6.65;;;3.50;;
61685;SDS011;47592;45.904;8.978;2023-06-26T06:15:34;7.00;;;3.10;;
61685;SDS011;47592;45.904;8.978;2023-06-26T06:18:00;6.20;;;3.17;;
61685;SDS011;47592;45.904;8.978;2023-06-26T06:20:27;6.53;;;3.67;;
61685;SDS011;47592;45.904;8.978;2023-06-26T06:22:55;6.15;;;3.53;;
61685;SDS011;47592;45.904;8.978;2023-06-26T06:25:20;6.38;;;3.40;;
61685;SDS011;47592;45.904;8.978;2023-06-26T06:27:45;6.45;;;3.60;;
61685;SDS011;47592;45.904;8.978;2023-06-26T06:30:11;7.45;;;3.40;;
61685;SDS011;47592;45.904;8.978;2023-06-26T06:32:36;5.90;;;3.40;;
61685;SDS011;47592;45.904;8.978;2023-06-26T06:35:01;5.70;;;3.60;;
61685;SDS011;47592;45.904;8.978;2023-06-26T06:37:33;6.03;;;3.03;;
61685;SDS011;47592;45.904;8.978;2023-06-26T06:40:01;5.35;;;3.22;;
61685;SDS011;47592;45.904;8.978;2023-06-26T06:42:28;5.77;;;3.50;;
61685;SDS011;47592;45.904;8.978;2023-06-26T06:44:54;6.10;;;3.38;;
61685;SDS011;47592;45.904;8.978;2023-06-26T06:47:19;5.23;;;3.13;;
61685;SDS011;47592;45.904;8.978;2023-06-26T06:49:44;6.17;;;3.60;;
61685;SDS011;47592;45.904;8.978;2023-06-26T06:52:12;5.43;;;3.13;;
61685;SDS011;47592;45.904;8.978;2023-06-26T06:54:58;6.10;;;3.23;;
61685;SDS011;47592;45.904;8.978;2023-06-26T06:57:30;6.07;;;3.05;;
61685;SDS011;47592;45.904;8.978;2023-06-26T06:59:55;5.47;;;3.05;;
61685;SDS011;47592;45.904;8.978;2023-06-26T07:02:20;5.83;;;3.20;;
61685;SDS011;47592;45.904;8.978;2023-06-26T07:04:46;6.80;;;3.50;;
61685;SDS011;47592;45.904;8.978;2023-06-26T07:07:11;7.83;;;3.90;;
61685;SDS011;47592;45.904;8.978;2023-06-26T07:09:38;7.50;;;3.78;;
61685;SDS011;47592;45.904;8.978;2023-06-26T07:12:07;7.93;;;3.50;;
61685;SDS011;47592;45.904;8.978;2023-06-26T07:14:38;7.25;;;3.42;;
61685;SDS011;47592;45.904;8.978;2023-06-26T07:17:03;5.43;;;2.80;;
61685;SDS011;47592;45.904;8.978;2023-06-26T07:19:29;7.17;;;3.33;;
61685;SDS011;47592;45.904;8.978;2023-06-26T07:21:56;6.68;;;3.13;;
61685;SDS011;47592;45.904;8.978;2023-06-26T07:24:25;6.55;;;3.40;;
61685;SDS011;47592;45.904;8.978;2023-06-26T07:26:50;7.40;;;3.30;;
61685;SDS011;47592;45.904;8.978;2023-06-26T07:29:15;6.33;;;3.57;;
61685;SDS011;47592;45.904;8.978;2023-06-26T07:31:40;6.30;;;3.87;;
61685;SDS011;47592;45.904;8.978;2023-06-26T07:34:12;8.45;;;3.55;;
61685;SDS011;47592;45.904;8.978;2023-06-26T07:36:37;8.52;;;3.60;;
61685;SDS011;47592;45.904;8.978;2023-06-26T07:39:03;6.37;;;3.23;;
61685;SDS011;47592;45.904;8.978;2023-06-26T07:41:28;6.97;;;2.90;;
61685;SDS011;47592;45.904;8.978;2023-06-26T07:43:56;5.97;;;3.10;;
61685;SDS011;47592;45.904;8.978;2023-06-26T07:46:21;5.95;;;3.20;;
61685;SDS011;47592;45.904;8.978;2023-06-26T07:48:47;9.63;;;3.37;;
61685;SDS011;47592;45.904;8.978;2023-06-26T07:51:12;5.95;;;3.35;;
61685;SDS011;47592;45.904;8.978;2023-06-26T07:53:37;7.33;;;3.17;;
61685;SDS011;47592;45.904;8.978;2023-06-26T07:56:05;7.30;;;3.10;;
61685;SDS011;47592;45.904;8.978;2023-06-26T07:58:30;5.57;;;2.90;;
61685;SDS011;47592;45.904;8.978;2023-06-26T08:00:56;6.13;;;3.55;;
61685;SDS011;47592;45.904;8.978;2023-06-26T08:03:21;7.47;;;3.30;;
61685;SDS011;47592;45.904;8.978;2023-06-26T08:05:46;8.47;;;3.30;;
61685;SDS011;47592;45.904;8.978;2023-06-26T08:08:11;7.53;;;3.13;;
61685;SDS011;47592;45.904;8.978;2023-06-26T08:10:37;7.37;;;3.17;;
61685;SDS011;47592;45.904;8.978;2023-06-26T08:13:02;5.47;;;2.77;;
61685;SDS011;47592;45.904;8.978;2023-06-26T08:15:27;5.53;;;3.20;;
61685;SDS011;47592;45.904;8.978;2023-06-26T08:17:54;5.33;;;3.00;;
61685;SDS011;47592;45.904;8.978;2023-06-26T08:20:20;5.70;;;3.03;;
61685;SDS011;47592;45.904;8.978;2023-06-26T08:22:47;6.18;;;2.90;;
61685;SDS011;47592;45.904;8.978;2023-06-26T08:25:14;5.65;;;3.35;;
61685;SDS011;47592;45.904;8.978;2023-06-26T08:27:39;6.10;;;3.23;;
61685;SDS011;47592;45.904;8.978;2023-06-26T08:30:04;5.83;;;2.77;;
61685;SDS011;47592;45.904;8.978;2023-06-26T08:32:30;8.02;;;3.22;;
61685;SDS011;47592;45.904;8.978;2023-06-26T08:34:55;4.97;;;2.90;;
61685;SDS011;47592;45.904;8.978;2023-06-26T08:37:23;7.38;;;3.88;;
61685;SDS011;47592;45.904;8.978;2023-06-26T08:39:48;5.20;;;2.80;;
61685;SDS011;47592;45.904;8.978;2023-06-26T08:42:16;5.38;;;3.30;;
61685;SDS011;47592;45.904;8.978;2023-06-26T08:44:41;6.38;;;3.10;;
61685;SDS011;47592;45.904;8.978;2023-06-26T08:47:09;6.07;;;3.35;;
61685;SDS011;47592;45.904;8.978;2023-06-26T08:52:21;5.80;;;3.20;;
61685;SDS011;47592;45.904;8.978;2023-06-26T08:54:49;6.20;;;3.75;;
61685;SDS011;47592;45.904;8.978;2023-06-26T08:57:18;6.85;;;3.13;;
61685;SDS011;47592;45.904;8.978;2023-06-26T08:59:44;6.60;;;3.53;;
61685;SDS011;47592;45.904;8.978;2023-06-26T09:02:12;7.10;;;3.60;;
61685;SDS011;47592;45.904;8.978;2023-06-26T09:04:40;5.63;;;2.75;;
61685;SDS011;47592;45.904;8.978;2023-06-26T09:07:08;5.88;;;3.10;;
61685;SDS011;47592;45.904;8.978;2023-06-26T09:09:36;5.88;;;3.10;;
61685;SDS011;47592;45.904;8.978;2023-06-26T09:12:03;6.72;;;3.00;;
61685;SDS011;47592;45.904;8.978;2023-06-26T09:14:29;6.60;;;3.47;;
61685;SDS011;47592;45.904;8.978;2023-06-26T09:16:54;7.93;;;3.03;;
61685;SDS011;47592;45.904;8.978;2023-06-26T09:19:19;5.70;;;3.07;;
61685;SDS011;47592;45.904;8.978;2023-06-26T09:21:44;5.77;;;3.00;;
61685;SDS011;47592;45.904;8.978;2023-06-26T09:24:13;5.78;;;3.10;;
61685;SDS011;47592;45.904;8.978;2023-06-26T09:26:41;5.95;;;2.83;;
61685;SDS011;47592;45.904;8.978;2023-06-26T09:29:07;6.07;;;3.23;;
61685;SDS011;47592;45.904;8.978;2023-06-26T09:31:33;6.10;;;3.42;;
61685;SDS011;47592;45.904;8.978;2023-06-26T09:33:58;6.20;;;3.40;;
61685;SDS011;47592;45.904;8.978;2023-06-26T09:36:30;8.70;;;3.50;;
61685;SDS011;47592;45.904;8.978;2023-06-26T09:39:07;5.68;;;3.08;;
61685;SDS011;47592;45.904;8.978;2023-06-26T09:41:43;6.55;;;3.50;;
61685;SDS011;47592;45.904;8.978;2023-06-26T09:44:11;7.78;;;3.42;;
61685;SDS011;47592;45.904;8.978;2023-06-26T09:46:38;5.53;;;3.13;;
61685;SDS011;47592;45.904;8.978;2023-06-26T09:49:06;6.78;;;3.20;;
61685;SDS011;47592;45.904;8.978;2023-06-26T09:51:36;5.65;;;3.28;;
61685;SDS011;47592;45.904;8.978;2023-06-26T09:54:04;5.30;;;3.22;;
61685;SDS011;47592;45.904;8.978;2023-06-26T09:56:30;6.20;;;3.58;;
61685;SDS011;47592;45.904;8.978;2023-06-26T09:58:56;6.85;;;3.40;;
61685;SDS011;47592;45.904;8.978;2023-06-26T10:01:22;6.45;;;3.38;;
61685;SDS011;47592;45.904;8.978;2023-06-26T10:03:52;5.50;;;3.37;;
61685;SDS011;47592;45.904;8.978;2023-06-26T10:06:19;7.05;;;3.45;;
61685;SDS011;47592;45.904;8.978;2023-06-26T10:08:47;5.90;;;3.45;;
61685;SDS011;47592;45.904;8.978;2023-06-26T10:11:16;8.43;;;3.58;;
61685;SDS011;47592;45.904;8.978;2023-06-26T10:13:46;5.70;;;3.33;;
61685;SDS011;47592;45.904;8.978;2023-06-26T10:16:14;7.30;;;3.63;;
61685;SDS011;47592;45.904;8.978;2023-06-26T10:18:43;6.30;;;3.53;;
61685;SDS011;47592;45.904;8.978;2023-06-26T10:21:11;8.02;;;3.50;;
61685;SDS011;47592;45.904;8.978;2023-06-26T10:23:38;7.40;;;3.40;;
61685;SDS011;47592;45.904;8.978;2023-06-26T10:26:06;7.80;;;3.88;;
61685;SDS011;47592;45.904;8.978;2023-06-26T10:28:32;7.05;;;3.50;;
61685;SDS011;47592;45.904;8.978;2023-06-26T10:30:58;5.70;;;3.33;;
61685;SDS011;47592;45.904;8.978;2023-06-26T10:33:23;6.05;;;3.30;;
61685;SDS011;47592;45.904;8.978;2023-06-26T10:35:49;4.90;;;3.05;;
61685;SDS011;47592;45.904;8.978;2023-06-26T10:38:14;6.47;;;3.10;;
61685;SDS011;47592;45.904;8.978;2023-06-26T10:40:43;8.87;;;3.60;;
61685;SDS011;47592;45.904;8.978;2023-06-26T10:43:10;5.38;;;3.20;;
61685;SDS011;47592;45.904;8.978;2023-06-26T10:45:36;6.80;;;3.60;;
61685;SDS011;47592;45.904;8.978;2023-06-26T10:48:02;6.75;;;3.38;;
61685;SDS011;47592;45.904;8.978;2023-06-26T10:50:29;7.35;;;3.53;;
61685;SDS011;47592;45.904;8.978;2023-06-26T10:56:07;5.97;;;3.40;;
61685;SDS011;47592;45.904;8.978;2023-06-26T11:06:23;6.38;;;3.30;;
61685;SDS011;47592;45.904;8.978;2023-06-26T11:09:23;6.10;;;3.30;;
61685;SDS011;47592;45.904;8.978;2023-06-26T11:14:23;7.03;;;3.50;;
61685;SDS011;47592;45.904;8.978;2023-06-26T11:16:49;6.65;;;3.58;;
61685;SDS011;47592;45.904;8.978;2023-06-26T11:19:15;5.88;;;3.55;;
61685;SDS011;47592;45.904;8.978;2023-06-26T11:21:41;5.32;;;3.45;;
61685;SDS011;47592;45.904;8.978;2023-06-26T11:24:08;7.53;;;3.50;;
61685;SDS011;47592;45.904;8.978;2023-06-26T11:26:43;6.60;;;3.00;;
61685;SDS011;47592;45.904;8.978;2023-06-26T11:29:10;6.45;;;3.40;;
61685;SDS011;47592;45.904;8.978;2023-06-26T11:31:38;5.63;;;3.35;;
61685;SDS011;47592;45.904;8.978;2023-06-26T11:34:04;6.53;;;3.58;;
61685;SDS011;47592;45.904;8.978;2023-06-26T11:36:30;6.28;;;3.38;;
61685;SDS011;47592;45.904;8.978;2023-06-26T11:38:56;8.27;;;3.70;;
61685;SDS011;47592;45.904;8.978;2023-06-26T11:41:22;7.47;;;3.70;;
61685;SDS011;47592;45.904;8.978;2023-06-26T11:43:48;5.88;;;3.60;;
61685;SDS011;47592;45.904;8.978;2023-06-26T11:46:15;7.82;;;3.55;;
61685;SDS011;47592;45.904;8.978;2023-06-26T11:48:41;6.25;;;3.50;;
61685;SDS011;47592;45.904;8.978;2023-06-26T11:51:08;7.60;;;3.50;;
61685;SDS011;47592;45.904;8.978;2023-06-26T11:53:39;6.55;;;3.42;;
61685;SDS011;47592;45.904;8.978;2023-06-26T11:56:14;7.20;;;3.67;;
61685;SDS011;47592;45.904;8.978;2023-06-26T11:58:56;6.47;;;3.45;;
61685;SDS011;47592;45.904;8.978;2023-06-26T12:01:22;9.23;;;3.85;;
61685;SDS011;47592;45.904;8.978;2023-06-26T12:03:48;7.18;;;3.80;;
61685;SDS011;47592;45.904;8.978;2023-06-26T12:06:14;7.85;;;3.50;;
61685;SDS011;47592;45.904;8.978;2023-06-26T12:08:42;6.57;;;3.90;;
61685;SDS011;47592;45.904;8.978;2023-06-26T12:11:07;8.05;;;3.95;;
61685;SDS011;47592;45.904;8.978;2023-06-26T12:13:34;7.47;;;3.90;;
61685;SDS011;47592;45.904;8.978;2023-06-26T12:16:00;6.07;;;3.47;;
61685;SDS011;47592;45.904;8.978;2023-06-26T12:18:25;6.97;;;4.00;;
61685;SDS011;47592;45.904;8.978;2023-06-26T12:20:51;6.55;;;3.70;;
61685;SDS011;47592;45.904;8.978;2023-06-26T12:23:17;5.85;;;3.85;;
61685;SDS011;47592;45.904;8.978;2023-06-26T12:25:42;6.87;;;3.93;;
61685;SDS011;47592;45.904;8.978;2023-06-26T12:28:17;7.80;;;3.63;;
61685;SDS011;47592;45.904;8.978;2023-06-26T12:30:45;7.75;;;4.00;;
61685;SDS011;47592;45.904;8.978;2023-06-26T12:33:14;7.53;;;3.72;;
61685;SDS011;47592;45.904;8.978;2023-06-26T12:35:39;7.93;;;3.72;;
61685;SDS011;47592;45.904;8.978;2023-06-26T12:38:07;6.53;;;3.93;;
61685;SDS011;47592;45.904;8.978;2023-06-26T12:40:34;6.90;;;3.67;;
61685;SDS011;47592;45.904;8.978;2023-06-26T12:42:59;6.60;;;3.80;;
61685;SDS011;47592;45.904;8.978;2023-06-26T12:45:24;9.13;;;3.77;;
61685;SDS011;47592;45.904;8.978;2023-06-26T12:47:52;6.40;;;3.80;;
61685;SDS011;47592;45.904;8.978;2023-06-26T12:50:17;7.47;;;3.70;;
61685;SDS011;47592;45.904;8.978;2023-06-26T12:52:43;6.75;;;3.90;;
61685;SDS011;47592;45.904;8.978;2023-06-26T12:55:08;6.80;;;4.03;;
61685;SDS011;47592;45.904;8.978;2023-06-26T12:57:34;7.43;;;3.92;;
61685;SDS011;47592;45.904;8.978;2023-06-26T12:59:59;6.93;;;3.75;;
61685;SDS011;47592;45.904;8.978;2023-06-26T13:02:27;9.20;;;4.20;;
61685;SDS011;47592;45.904;8.978;2023-06-26T13:04:52;8.77;;;4.20;;
61685;SDS011;47592;45.904;8.978;2023-06-26T13:07:18;6.57;;;3.87;;
61685;SDS011;47592;45.904;8.978;2023-06-26T13:09:43;6.35;;;3.95;;
61685;SDS011;47592;45.904;8.978;2023-06-26T13:12:10;5.30;;;3.53;;
61685;SDS011;47592;45.904;8.978;2023-06-26T13:14:35;7.67;;;4.03;;
61685;SDS011;47592;45.904;8.978;2023-06-26T13:17:03;7.57;;;3.92;;
61685;SDS011;47592;45.904;8.978;2023-06-26T13:19:28;8.40;;;3.63;;
61685;SDS011;47592;45.904;8.978;2023-06-26T13:21:54;7.73;;;3.80;;
61685;SDS011;47592;45.904;8.978;2023-06-26T13:24:19;6.50;;;3.57;;
61685;SDS011;47592;45.904;8.978;2023-06-26T13:26:44;7.77;;;4.00;;
61685;SDS011;47592;45.904;8.978;2023-06-26T13:29:09;8.17;;;3.70;;
61685;SDS011;47592;45.904;8.978;2023-06-26T13:31:35;5.77;;;3.80;;
61685;SDS011;47592;45.904;8.978;2023-06-26T13:34:01;6.68;;;4.15;;
61685;SDS011;47592;45.904;8.978;2023-06-26T13:36:28;6.38;;;3.83;;
61685;SDS011;47592;45.904;8.978;2023-06-26T13:38:56;5.77;;;3.70;;
61685;SDS011;47592;45.904;8.978;2023-06-26T13:41:24;6.13;;;3.58;;
61685;SDS011;47592;45.904;8.978;2023-06-26T13:43:53;6.28;;;3.88;;
61685;SDS011;47592;45.904;8.978;2023-06-26T13:46:18;8.77;;;3.90;;
61685;SDS011;47592;45.904;8.978;2023-06-26T13:48:44;6.50;;;4.03;;
61685;SDS011;47592;45.904;8.978;2023-06-26T13:51:09;8.00;;;3.97;;
61685;SDS011;47592;45.904;8.978;2023-06-26T13:53:34;7.17;;;3.87;;
61685;SDS011;47592;45.904;8.978;2023-06-26T13:55:59;6.50;;;3.87;;
61685;SDS011;47592;45.904;8.978;2023-06-26T13:58:25;8.93;;;4.30;;
61685;SDS011;47592;45.904;8.978;2023-06-26T14:00:52;6.22;;;3.70;;
61685;SDS011;47592;45.904;8.978;2023-06-26T14:03:20;10.32;;;4.07;;
61685;SDS011;47592;45.904;8.978;2023-06-26T14:05:45;6.43;;;3.63;;
61685;SDS011;47592;45.904;8.978;2023-06-26T14:08:10;7.60;;;3.63;;
61685;SDS011;47592;45.904;8.978;2023-06-26T14:10:36;6.10;;;3.58;;
61685;SDS011;47592;45.904;8.978;2023-06-26T14:13:02;7.40;;;3.67;;
61685;SDS011;47592;45.904;8.978;2023-06-26T14:15:30;6.40;;;3.70;;
61685;SDS011;47592;45.904;8.978;2023-06-26T14:17:58;6.90;;;4.00;;
61685;SDS011;47592;45.904;8.978;2023-06-26T14:20:24;8.38;;;3.70;;
61685;SDS011;47592;45.904;8.978;2023-06-26T14:22:49;7.15;;;4.00;;
61685;SDS011;47592;45.904;8.978;2023-06-26T14:25:16;6.43;;;3.93;;
61685;SDS011;47592;45.904;8.978;2023-06-26T14:27:41;6.93;;;4.15;;
61685;SDS011;47592;45.904;8.978;2023-06-26T14:30:11;7.65;;;3.58;;
61685;SDS011;47592;45.904;8.978;2023-06-26T14:32:36;9.43;;;4.13;;
61685;SDS011;47592;45.904;8.978;2023-06-26T14:35:02;7.60;;;4.03;;
61685;SDS011;47592;45.904;8.978;2023-06-26T14:37:32;7.23;;;4.27;;
61685;SDS011;47592;45.904;8.978;2023-06-26T14:39:57;6.93;;;4.03;;
61685;SDS011;47592;45.904;8.978;2023-06-26T14:42:23;5.65;;;3.97;;
61685;SDS011;47592;45.904;8.978;2023-06-26T14:44:52;8.27;;;4.00;;
61685;SDS011;47592;45.904;8.978;2023-06-26T14:47:17;6.40;;;4.03;;
61685;SDS011;47592;45.904;8.978;2023-06-26T14:49:43;6.60;;;3.75;;
61685;SDS011;47592;45.904;8.978;2023-06-26T14:52:08;8.30;;;3.97;;
61685;SDS011;47592;45.904;8.978;2023-06-26T14:54:35;8.02;;;4.07;;
61685;SDS011;47592;45.904;8.978;2023-06-26T14:57:04;8.77;;;4.10;;
61685;SDS011;47592;45.904;8.978;2023-06-26T14:59:30;8.27;;;4.20;;
61685;SDS011;47592;45.904;8.978;2023-06-26T15:01:55;7.60;;;3.80;;
61685;SDS011;47592;45.904;8.978;2023-06-26T15:04:20;6.67;;;3.77;;
61685;SDS011;47592;45.904;8.978;2023-06-26T15:06:46;6.50;;;4.10;;
61685;SDS011;47592;45.904;8.978;2023-06-26T15:09:11;8.13;;;4.63;;